Cherry Point MCAS /Cunningham Field/
KNKT : now visible

Airfield :











YOU CAN JOIN US ON...

 
LOGIN :

Register | Disclaimer

   EN    FR    IT 

 









Legend :    VFR   Marginal VFR   IFR   Intensive IFR   Very Intensive IFR
Visi :
Ceiling :
>= 8 km
>= 3000ft
5 to 8 km
1000 to 3000 ft
1500m to 5 km
500 to 1000 ft
800 to 1500m
200 to 500 ft
< 800m
< 200 ft
Symbols :   Thunderstorms  Fog  Heavy snow  Heavy precipitations  Wind > 20 kt






- Airport Elevation : 29 ft


KNKT - Cherry Point MCAS /Cunningham Field/

CURRENT METAR :
  • 061956Z 35013G18KT 10SM FEW065 16/02 A3007 RMK AO2 SLP180 T01560017

EXPIRED METARs :
  • 061856Z 33015G23KT 10SM CLR 16/02 A3006 RMK AO2 SLP176 T01560017
  • 061756Z 33017G23KT 10SM SCT050 16/03 A3005 RMK AO2 PK WND 34027/1731 SLP173 T01610028 10161 20078 50003

TAF TAF KNKT
Valid from the 06 at 15:00 until the 07 at 15:00 UTC


0615/0715 31012KT 9999 SKC QNH3002INS
FM061600 32012G22KT 9999 BKN040 QNH3016INS
BECMG 0700/0702 03008KT 9999 SCT050 QNH3015INS T16/0618Z T03/0717Z
KZDC FIR / North America



MET'MAP, your aeronautical weather chart ! - Copyright ORBIFLY December 2007 - Disclaimer

ORBIFLY MET'MAP TEAM :

Programming & Development : Alexandra Zaïnal
Original concept : Baudouin d'Aumeries
Technical & hardware support : Manuel Goepfert
Assistance : Marc-Olivier Méhu




SOURCES & CREDITS :

   NOAA       Earth
Advisory